createdAt,value
2018-12-05T00:00:21.717Z,7.40
2018-12-05T00:02:50.772Z,7.30
2018-12-05T00:05:19.855Z,7.20
2018-12-05T00:07:48.973Z,7.10
2018-12-05T00:10:18.060Z,7.20
2018-12-05T00:12:47.213Z,7.20
2018-12-05T00:15:16.325Z,7.20
2018-12-05T00:17:45.396Z,7.30
2018-12-05T00:20:14.518Z,7.20
2018-12-05T00:22:43.714Z,7.30
2018-12-05T00:25:13.853Z,7.30
2018-12-05T00:27:43.598Z,7.20
2018-12-05T00:30:12.753Z,7.20
2018-12-05T00:32:41.832Z,7.20
2018-12-05T00:35:11.072Z,7.20
2018-12-05T00:37:40.174Z,7.10
2018-12-05T00:40:09.283Z,7.00
2018-12-05T00:42:38.354Z,7.00
2018-12-05T00:45:07.626Z,7.00
2018-12-05T00:47:37.153Z,7.00
2018-12-05T00:50:06.392Z,7.00
2018-12-05T00:52:35.515Z,7.00
2018-12-05T00:55:05.738Z,7.00
2018-12-05T00:57:34.818Z,7.00
2018-12-05T01:00:04.936Z,6.90
2018-12-05T01:02:34.646Z,6.90
2018-12-05T01:05:04.092Z,7.00
2018-12-05T01:07:33.238Z,7.00
2018-12-05T01:10:02.337Z,6.80
2018-12-05T01:12:31.420Z,6.90
2018-12-05T01:15:00.550Z,6.90
2018-12-05T01:17:29.650Z,6.90
2018-12-05T01:19:58.768Z,6.90
2018-12-05T01:22:27.907Z,7.00
2018-12-05T01:24:56.980Z,7.00
2018-12-05T01:27:26.066Z,7.00
2018-12-05T01:29:55.186Z,7.00
2018-12-05T01:32:24.252Z,7.00
2018-12-05T01:34:53.325Z,6.90
2018-12-05T01:37:22.668Z,7.00
2018-12-05T01:39:51.722Z,7.10
2018-12-05T01:42:20.848Z,7.10
2018-12-05T01:44:55.382Z,7.10
2018-12-05T01:47:24.743Z,7.00
2018-12-05T01:49:53.847Z,7.00
2018-12-05T01:52:23.055Z,6.90
2018-12-05T01:54:52.173Z,6.90
2018-12-05T01:57:21.235Z,6.90
2018-12-05T01:59:50.897Z,6.90
2018-12-05T02:02:20.007Z,6.80
2018-12-05T02:04:49.083Z,6.80
2018-12-05T02:07:18.769Z,6.90
2018-12-05T02:09:48.481Z,6.80
2018-12-05T02:12:17.602Z,6.90
2018-12-05T02:14:46.731Z,6.90
2018-12-05T02:17:15.834Z,6.90
2018-12-05T02:19:45.015Z,6.90
2018-12-05T02:22:14.085Z,6.80
2018-12-05T02:24:43.170Z,6.70
2018-12-05T02:27:12.335Z,6.70
2018-12-05T02:29:47.533Z,6.60
2018-12-05T02:32:16.654Z,6.70
2018-12-05T02:34:45.731Z,6.60
2018-12-05T02:37:14.864Z,6.50
2018-12-05T02:39:45.240Z,6.40
2018-12-05T02:42:14.296Z,6.30
2018-12-05T02:44:43.562Z,6.30
2018-12-05T02:47:13.376Z,6.20
2018-12-05T02:49:42.940Z,6.30
2018-12-05T02:52:12.031Z,6.30
2018-12-05T02:54:41.159Z,6.30
2018-12-05T02:57:10.231Z,6.30
2018-12-05T02:59:39.303Z,6.30
2018-12-05T03:02:08.422Z,6.40
2018-12-05T03:04:37.511Z,6.30
2018-12-05T03:07:06.574Z,6.30
2018-12-05T03:09:35.680Z,6.30
2018-12-05T03:12:05.003Z,6.30
2018-12-05T03:14:34.149Z,6.30
2018-12-05T03:17:03.390Z,6.40
2018-12-05T03:19:32.473Z,6.40
2018-12-05T03:22:01.648Z,6.40
2018-12-05T03:24:30.782Z,6.30
2018-12-05T03:26:59.961Z,6.30
2018-12-05T03:29:29.748Z,6.30
2018-12-05T03:31:58.839Z,6.40
2018-12-05T03:34:27.910Z,6.20
2018-12-05T03:36:56.988Z,6.30
2018-12-05T03:39:26.084Z,6.30
2018-12-05T03:41:55.568Z,6.40
2018-12-05T03:44:24.648Z,6.40
2018-12-05T03:46:53.918Z,6.40
2018-12-05T03:49:23.004Z,6.40
2018-12-05T03:51:52.103Z,6.50
2018-12-05T03:54:21.363Z,6.50
2018-12-05T03:56:50.448Z,6.50
2018-12-05T03:59:19.537Z,6.50
2018-12-05T04:01:48.675Z,6.60
2018-12-05T04:04:18.117Z,6.50
2018-12-05T04:06:47.193Z,6.50
2018-12-05T04:09:16.306Z,6.50
2018-12-05T04:11:45.360Z,6.50
2018-12-05T04:14:14.462Z,6.50
2018-12-05T04:16:43.629Z,6.50
2018-12-05T04:19:12.710Z,6.50
2018-12-05T04:21:41.809Z,6.60
2018-12-05T04:24:10.897Z,6.60
2018-12-05T04:26:39.998Z,6.60
2018-12-05T04:29:09.795Z,6.60
2018-12-05T04:31:38.905Z,6.60
2018-12-05T04:34:08.016Z,6.60
2018-12-05T04:36:37.089Z,6.60
2018-12-05T04:39:09.558Z,6.70
2018-12-05T04:41:38.648Z,6.70
2018-12-05T04:44:08.014Z,6.70
2018-12-05T04:46:37.311Z,6.70
2018-12-05T04:49:06.429Z,6.70
2018-12-05T04:51:35.511Z,6.70
2018-12-05T04:54:04.971Z,6.70
2018-12-05T04:56:34.063Z,6.70
2018-12-05T04:59:03.180Z,6.70
2018-12-05T05:01:32.289Z,6.80
2018-12-05T05:04:01.352Z,6.80
2018-12-05T05:06:30.446Z,6.70
2018-12-05T05:09:00.316Z,6.80
2018-12-05T05:11:29.405Z,6.80
2018-12-05T05:13:58.475Z,6.80
2018-12-05T05:16:27.609Z,6.90
2018-12-05T05:18:56.707Z,6.80
2018-12-05T05:21:25.839Z,6.90
2018-12-05T05:23:54.967Z,6.90
2018-12-05T05:26:24.093Z,7.00
2018-12-05T05:28:53.182Z,6.90
2018-12-05T05:31:23.778Z,7.00
2018-12-05T05:33:53.025Z,6.90
2018-12-05T05:36:22.201Z,7.00
2018-12-05T05:38:51.887Z,7.00
2018-12-05T05:41:20.937Z,7.00
2018-12-05T05:43:50.079Z,7.00
2018-12-05T05:46:19.617Z,7.00
2018-12-05T05:48:48.721Z,7.00
2018-12-05T05:51:18.321Z,7.10
2018-12-05T05:53:47.410Z,7.10
2018-12-05T05:56:16.485Z,7.00
2018-12-05T05:58:45.587Z,6.90
2018-12-05T06:01:14.703Z,6.90
2018-12-05T06:03:43.757Z,6.90
2018-12-05T06:06:12.917Z,6.90
2018-12-05T06:08:42.057Z,6.90
2018-12-05T06:11:11.135Z,6.90
2018-12-05T06:13:40.800Z,6.90
2018-12-05T06:16:09.901Z,6.90
2018-12-05T06:18:39.104Z,6.90
2018-12-05T06:21:08.283Z,6.90
2018-12-05T06:23:37.370Z,7.00
2018-12-05T06:26:06.446Z,7.00
2018-12-05T06:28:35.606Z,7.00
2018-12-05T06:31:04.715Z,7.10
2018-12-05T06:33:33.794Z,7.10
2018-12-05T06:36:03.040Z,7.00
2018-12-05T06:38:32.173Z,7.10
2018-12-05T06:41:01.253Z,7.10
2018-12-05T06:43:30.363Z,7.10
2018-12-05T06:45:59.427Z,7.10
2018-12-05T06:48:28.922Z,7.10
2018-12-05T06:50:58.236Z,7.00
2018-12-05T06:53:27.299Z,7.10
2018-12-05T06:55:56.395Z,7.10
2018-12-05T06:58:25.569Z,7.00
2018-12-05T07:00:54.677Z,7.00
2018-12-05T07:03:23.765Z,7.10
2018-12-05T07:05:52.922Z,7.10
2018-12-05T07:08:22.092Z,7.00
2018-12-05T07:10:51.168Z,7.00
2018-12-05T07:13:20.443Z,7.00
2018-12-05T07:15:49.575Z,6.90
2018-12-05T07:18:18.985Z,7.00
2018-12-05T07:20:48.103Z,7.00
2018-12-05T07:23:17.271Z,7.00
2018-12-05T07:25:46.355Z,7.00
2018-12-05T07:28:15.453Z,7.10
2018-12-05T07:30:44.531Z,7.00
2018-12-05T07:33:13.731Z,7.00
2018-12-05T07:35:42.941Z,7.10
2018-12-05T07:38:19.222Z,7.10
2018-12-05T07:40:43.128Z,7.20
2018-12-05T07:43:12.171Z,7.20
2018-12-05T07:45:41.274Z,7.20
2018-12-05T07:48:10.413Z,7.10
2018-12-05T07:50:40.645Z,7.20
2018-12-05T07:53:09.809Z,7.20
2018-12-05T07:55:38.903Z,7.20
2018-12-05T07:58:08.175Z,7.20
2018-12-05T08:00:37.300Z,7.30
2018-12-05T08:03:06.394Z,7.30
2018-12-05T08:05:35.487Z,7.30
2018-12-05T08:08:04.643Z,7.30
2018-12-05T08:10:33.684Z,7.40
2018-12-05T08:13:02.778Z,7.40
2018-12-05T08:15:31.947Z,7.30
2018-12-05T08:18:01.031Z,7.40
2018-12-05T08:20:30.130Z,7.40
2018-12-05T08:22:59.247Z,7.40
2018-12-05T08:25:28.336Z,7.50
2018-12-05T08:27:57.426Z,7.50
2018-12-05T08:30:26.529Z,7.40
2018-12-05T08:32:55.614Z,7.50
2018-12-05T08:35:24.695Z,7.50
2018-12-05T08:37:54.102Z,7.60
2018-12-05T08:40:23.204Z,7.60
2018-12-05T08:42:52.307Z,7.70
2018-12-05T08:45:21.476Z,7.70
2018-12-05T08:47:50.540Z,7.70
2018-12-05T08:50:19.612Z,7.70
2018-12-05T08:52:48.901Z,7.70
2018-12-05T08:55:17.982Z,7.70
2018-12-05T08:57:47.192Z,7.80
2018-12-05T09:00:16.428Z,7.70
2018-12-05T09:02:45.619Z,7.90
2018-12-05T09:05:14.722Z,7.90
2018-12-05T09:07:44.392Z,7.90
2018-12-05T09:10:13.612Z,7.90
2018-12-05T09:12:42.684Z,8.00
2018-12-05T09:15:11.803Z,8.00
2018-12-05T09:17:40.871Z,8.10
2018-12-05T09:20:10.081Z,8.10
2018-12-05T09:22:41.499Z,8.10
2018-12-05T09:25:10.412Z,8.20
2018-12-05T09:27:39.614Z,8.20
2018-12-05T09:30:08.938Z,8.30
2018-12-05T09:32:38.038Z,8.20
2018-12-05T09:35:07.168Z,8.30
2018-12-05T09:37:36.248Z,8.40
2018-12-05T09:40:05.680Z,8.40
2018-12-05T09:42:34.800Z,8.40
2018-12-05T09:45:04.278Z,8.50
2018-12-05T09:47:33.366Z,8.50
2018-12-05T09:50:02.476Z,8.50
2018-12-05T09:52:31.586Z,8.60
2018-12-05T09:55:01.022Z,8.60
2018-12-05T09:57:30.135Z,8.60
2018-12-05T09:59:59.326Z,8.60
2018-12-05T10:02:28.398Z,8.70
2018-12-05T10:04:57.536Z,8.70
2018-12-05T10:07:26.612Z,8.70
2018-12-05T10:09:56.380Z,8.80
2018-12-05T10:12:25.506Z,8.80
2018-12-05T10:14:54.593Z,8.90
2018-12-05T10:17:24.206Z,8.80
2018-12-05T10:19:53.344Z,8.90
2018-12-05T10:22:22.408Z,8.90
2018-12-05T10:24:52.222Z,8.90
2018-12-05T10:27:21.344Z,9.00
2018-12-05T10:29:50.573Z,9.00
2018-12-05T10:32:19.672Z,9.10
2018-12-05T10:34:48.855Z,9.10
2018-12-05T10:37:17.991Z,9.20
2018-12-05T10:39:47.063Z,9.10
2018-12-05T10:42:16.187Z,9.10
2018-12-05T10:44:45.312Z,9.10
2018-12-05T10:47:14.416Z,9.10
2018-12-05T10:52:31.213Z,9.20
2018-12-05T10:55:00.304Z,9.30
2018-12-05T10:57:29.802Z,9.30
2018-12-05T10:59:59.097Z,9.40
2018-12-05T11:02:33.311Z,9.30
2018-12-05T11:05:07.703Z,9.20
2018-12-05T11:07:42.147Z,9.30
2018-12-05T11:10:16.615Z,9.30
2018-12-05T11:12:50.963Z,9.20
2018-12-05T11:15:25.461Z,9.10
2018-12-05T11:17:59.777Z,9.00
2018-12-05T11:20:34.285Z,9.00
2018-12-05T11:23:08.580Z,9.10
2018-12-05T11:25:37.683Z,9.10
2018-12-05T11:28:06.765Z,9.20
2018-12-05T11:30:36.269Z,9.30
2018-12-05T11:33:05.397Z,9.50
2018-12-05T11:35:36.171Z,9.60
2018-12-05T11:38:05.647Z,9.60
2018-12-05T11:40:34.751Z,9.60
2018-12-05T11:43:03.966Z,9.70
2018-12-05T11:45:33.089Z,9.70
2018-12-05T11:48:02.420Z,9.80
2018-12-05T11:50:31.493Z,9.80
2018-12-05T11:53:00.583Z,9.70
2018-12-05T11:55:29.672Z,9.80
2018-12-05T11:57:59.080Z,9.70
2018-12-05T12:00:28.306Z,9.80
2018-12-05T12:02:57.575Z,9.80
2018-12-05T12:05:26.659Z,9.80
2018-12-05T12:07:55.917Z,9.80
2018-12-05T12:10:30.143Z,9.80
2018-12-05T12:13:07.034Z,9.80
2018-12-05T12:15:36.630Z,9.90
2018-12-05T12:18:06.141Z,9.90
2018-12-05T12:20:35.213Z,9.90
2018-12-05T12:23:04.480Z,10.00
2018-12-05T12:25:33.562Z,10.10
2018-12-05T12:28:02.691Z,10.00
2018-12-05T12:30:31.810Z,10.00
2018-12-05T12:33:02.708Z,9.90
2018-12-05T12:35:32.859Z,9.90
2018-12-05T12:38:01.955Z,9.90
2018-12-05T12:40:31.065Z,9.90
2018-12-05T12:43:00.215Z,10.00
2018-12-05T12:45:29.287Z,9.90
2018-12-05T12:47:58.395Z,9.90
2018-12-05T12:50:27.499Z,10.00
2018-12-05T12:52:56.565Z,9.90
2018-12-05T12:55:25.683Z,10.00
2018-12-05T12:57:54.817Z,10.00
2018-12-05T13:00:24.187Z,10.00
2018-12-05T13:02:53.363Z,10.00
2018-12-05T13:05:22.505Z,10.00
2018-12-05T13:07:51.586Z,10.00
2018-12-05T13:10:20.660Z,9.90
2018-12-05T13:12:51.804Z,9.90
2018-12-05T13:15:20.873Z,9.90
2018-12-05T13:17:49.952Z,9.90
2018-12-05T13:20:19.076Z,9.90
2018-12-05T13:22:48.294Z,9.90
2018-12-05T13:25:17.424Z,9.80
2018-12-05T13:27:46.543Z,9.80
2018-12-05T13:30:15.667Z,9.90
2018-12-05T13:32:44.766Z,9.80
2018-12-05T13:35:14.026Z,9.90
2018-12-05T13:37:43.118Z,9.90
2018-12-05T13:40:12.327Z,9.80
2018-12-05T13:42:41.448Z,9.80
2018-12-05T13:45:10.762Z,9.70
2018-12-05T13:47:39.927Z,9.70
2018-12-05T13:50:09.078Z,9.70
2018-12-05T13:52:38.201Z,9.70
2018-12-05T13:55:07.308Z,9.80
2018-12-05T13:57:36.432Z,9.70
2018-12-05T14:00:07.540Z,9.70
2018-12-05T14:02:36.794Z,9.60
2018-12-05T14:05:06.152Z,9.60
2018-12-05T14:07:35.463Z,9.60
2018-12-05T14:10:05.050Z,9.60
2018-12-05T14:12:39.110Z,9.60
2018-12-05T14:15:09.568Z,9.60
2018-12-05T14:17:38.664Z,9.60
2018-12-05T14:20:09.306Z,9.50
2018-12-05T14:22:38.401Z,9.50
2018-12-05T14:25:08.110Z,9.40
2018-12-05T14:27:37.306Z,9.40
2018-12-05T14:30:07.812Z,9.30
2018-12-05T14:32:36.896Z,9.30
2018-12-05T14:35:06.218Z,9.30
2018-12-05T14:37:35.315Z,9.20
2018-12-05T14:40:05.330Z,9.30
2018-12-05T14:42:34.496Z,9.20
2018-12-05T14:45:03.712Z,9.20
2018-12-05T14:47:32.904Z,9.20
2018-12-05T14:50:02.176Z,9.30
2018-12-05T14:52:31.391Z,9.30
2018-12-05T14:55:00.590Z,9.30
2018-12-05T14:57:30.712Z,9.30
2018-12-05T15:00:00.092Z,9.30
2018-12-05T15:02:29.320Z,9.30
2018-12-05T15:04:59.005Z,9.30
2018-12-05T15:07:28.142Z,9.20
2018-12-05T15:09:57.276Z,9.20
2018-12-05T15:12:26.372Z,9.20
2018-12-05T15:14:55.545Z,9.20
2018-12-05T15:17:25.781Z,9.20
2018-12-05T15:19:54.993Z,9.30
2018-12-05T15:22:24.213Z,9.30
2018-12-05T15:24:53.447Z,9.20
2018-12-05T15:27:22.693Z,8.90
2018-12-05T15:29:51.916Z,8.80
2018-12-05T15:32:21.134Z,8.90
2018-12-05T15:34:50.246Z,8.80
2018-12-05T15:37:19.393Z,8.80
2018-12-05T15:39:48.675Z,8.70
2018-12-05T15:42:17.764Z,8.70
2018-12-05T15:44:46.989Z,8.70
2018-12-05T15:47:16.205Z,8.60
2018-12-05T15:49:45.355Z,8.60
2018-12-05T15:52:14.603Z,8.50
2018-12-05T15:54:43.779Z,8.40
2018-12-05T15:57:13.024Z,8.40
2018-12-05T15:59:42.211Z,8.40
2018-12-05T16:02:11.485Z,8.40
2018-12-05T16:04:40.616Z,8.30
2018-12-05T16:07:11.025Z,8.30
2018-12-05T16:09:40.163Z,8.50
2018-12-05T16:12:09.335Z,8.30
2018-12-05T16:14:39.050Z,8.20
2018-12-05T16:17:08.205Z,8.20
2018-12-05T16:19:37.300Z,8.10
2018-12-05T16:22:07.281Z,8.10
2018-12-05T16:24:36.467Z,8.10
2018-12-05T16:27:05.633Z,8.10
2018-12-05T16:29:34.771Z,8.10
2018-12-05T16:32:04.197Z,8.10
2018-12-05T16:34:33.351Z,8.00
2018-12-05T16:37:02.545Z,7.90
2018-12-05T16:39:31.767Z,7.90
2018-12-05T16:42:01.022Z,8.00
2018-12-05T16:44:30.173Z,8.00
2018-12-05T16:46:59.424Z,7.90
2018-12-05T16:49:28.651Z,7.90
2018-12-05T16:51:57.891Z,7.90
2018-12-05T16:54:28.059Z,7.90
2018-12-05T16:56:57.372Z,7.90
2018-12-05T16:59:26.525Z,8.00
2018-12-05T17:01:55.721Z,7.90
2018-12-05T17:04:25.945Z,7.90
2018-12-05T17:06:55.161Z,7.90
2018-12-05T17:09:26.316Z,8.00
2018-12-05T17:11:55.763Z,8.20
2018-12-05T17:14:24.973Z,8.10
2018-12-05T17:16:54.148Z,8.00
2018-12-05T17:19:23.299Z,8.00
2018-12-05T17:21:52.435Z,7.90
2018-12-05T17:24:21.555Z,7.80
2018-12-05T17:26:50.675Z,7.80
2018-12-05T17:29:19.749Z,7.80
2018-12-05T17:31:48.855Z,7.80
2018-12-05T17:34:17.979Z,7.70
2018-12-05T17:36:47.077Z,7.70
2018-12-05T17:39:16.171Z,7.60
2018-12-05T17:41:45.291Z,7.70
2018-12-05T17:44:15.067Z,7.70
2018-12-05T17:46:44.177Z,7.70
2018-12-05T17:49:13.259Z,7.70
2018-12-05T17:51:42.410Z,7.70
2018-12-05T17:54:14.666Z,7.60
2018-12-05T17:56:43.352Z,7.60
2018-12-05T17:59:12.449Z,7.60
2018-12-05T18:01:42.226Z,7.60
2018-12-05T18:04:11.342Z,7.60
2018-12-05T18:06:40.465Z,7.50
2018-12-05T18:09:09.802Z,7.40
2018-12-05T18:11:39.476Z,7.30
2018-12-05T18:14:08.558Z,7.30
2018-12-05T18:16:37.673Z,7.30
2018-12-05T18:19:06.930Z,7.30
2018-12-05T18:21:36.031Z,7.30
2018-12-05T18:24:05.153Z,7.30
2018-12-05T18:26:34.293Z,7.30
2018-12-05T18:29:03.514Z,7.40
2018-12-05T18:31:32.624Z,7.50
2018-12-05T18:34:01.923Z,7.50
2018-12-05T18:36:31.015Z,7.60
2018-12-05T18:39:00.121Z,7.50
2018-12-05T18:41:29.264Z,7.50
2018-12-05T18:43:58.464Z,7.50
2018-12-05T18:46:27.543Z,7.50
2018-12-05T18:48:56.659Z,7.60
2018-12-05T18:51:25.779Z,7.60
2018-12-05T18:53:54.937Z,7.60
2018-12-05T18:56:24.074Z,7.60
2018-12-05T18:58:53.184Z,7.60
2018-12-05T19:01:22.287Z,7.70
2018-12-05T19:03:51.387Z,7.70
2018-12-05T19:06:20.599Z,7.60
2018-12-05T19:08:49.699Z,7.70
2018-12-05T19:11:18.793Z,7.60
2018-12-05T19:13:53.259Z,7.60
2018-12-05T19:16:22.561Z,7.60
2018-12-05T19:18:51.642Z,7.70
2018-12-05T19:21:20.705Z,7.80
2018-12-05T19:23:49.837Z,7.70
2018-12-05T19:26:18.947Z,7.70
2018-12-05T19:28:48.061Z,7.70
2018-12-05T19:31:19.509Z,7.60
2018-12-05T19:33:48.372Z,7.60
2018-12-05T19:36:17.449Z,7.60
2018-12-05T19:38:46.507Z,7.60
2018-12-05T19:41:15.665Z,7.60
2018-12-05T19:43:44.797Z,7.50
2018-12-05T19:46:13.909Z,7.50
2018-12-05T19:48:43.210Z,7.60
2018-12-05T19:51:12.459Z,7.60
2018-12-05T19:53:41.556Z,7.60
2018-12-05T19:56:10.658Z,7.60
2018-12-05T19:58:39.813Z,7.70
2018-12-05T20:01:08.932Z,7.60
2018-12-05T20:03:38.108Z,7.60
2018-12-05T20:06:07.357Z,7.60
2018-12-05T20:08:36.449Z,7.60
2018-12-05T20:11:05.548Z,7.60
2018-12-05T20:13:36.621Z,7.70
2018-12-05T20:16:05.802Z,7.70
2018-12-05T20:18:34.909Z,7.60
2018-12-05T20:21:04.081Z,7.60
2018-12-05T20:23:33.207Z,7.70
2018-12-05T20:26:02.301Z,7.70
2018-12-05T20:28:31.385Z,7.70
2018-12-05T20:31:00.465Z,7.70
2018-12-05T20:33:29.530Z,7.70
2018-12-05T20:35:58.625Z,7.70
2018-12-05T20:38:27.727Z,7.70
2018-12-05T20:40:56.814Z,7.70
2018-12-05T20:43:25.915Z,7.70
2018-12-05T20:45:54.999Z,7.70
2018-12-05T20:48:24.115Z,7.60
2018-12-05T20:50:53.391Z,7.60
2018-12-05T20:53:22.497Z,7.60
2018-12-05T20:55:51.605Z,7.60
2018-12-05T20:58:20.698Z,7.70
2018-12-05T21:00:49.785Z,7.70
2018-12-05T21:03:18.908Z,7.60
2018-12-05T21:05:48.067Z,7.70
2018-12-05T21:08:17.217Z,7.60
2018-12-05T21:10:46.357Z,7.60
2018-12-05T21:13:15.497Z,7.60
2018-12-05T21:15:44.595Z,7.60
2018-12-05T21:18:13.859Z,7.60
2018-12-05T21:20:43.007Z,7.60
2018-12-05T21:23:12.101Z,7.60
2018-12-05T21:25:41.182Z,7.60
2018-12-05T21:28:10.321Z,7.60
2018-12-05T21:30:39.459Z,7.60
2018-12-05T21:33:08.659Z,7.50
2018-12-05T21:35:38.371Z,7.50
2018-12-05T21:38:07.452Z,7.50
2018-12-05T21:40:36.609Z,7.60
2018-12-05T21:43:05.695Z,7.60
2018-12-05T21:45:34.803Z,7.60
2018-12-05T21:48:03.928Z,7.60
2018-12-05T21:50:33.008Z,7.60
2018-12-05T21:53:02.089Z,7.70
2018-12-05T21:55:31.169Z,7.60
2018-12-05T21:58:00.304Z,7.60
2018-12-05T22:00:29.387Z,7.60
2018-12-05T22:02:58.479Z,7.60
2018-12-05T22:05:27.602Z,7.60
2018-12-05T22:07:56.719Z,7.60
2018-12-05T22:10:25.807Z,7.60
2018-12-05T22:12:54.891Z,7.60
2018-12-05T22:15:23.995Z,7.60
2018-12-05T22:17:53.073Z,7.60
2018-12-05T22:20:22.521Z,7.60
2018-12-05T22:22:51.605Z,7.60
2018-12-05T22:25:20.726Z,7.80
2018-12-05T22:27:49.821Z,7.60
2018-12-05T22:30:18.979Z,7.70
2018-12-05T22:32:48.068Z,7.70
2018-12-05T22:35:17.157Z,7.70
2018-12-05T22:37:46.266Z,7.70
2018-12-05T22:40:15.367Z,7.70
2018-12-05T22:42:44.559Z,7.70
2018-12-05T22:45:13.669Z,7.70
2018-12-05T22:47:42.763Z,7.70
2018-12-05T22:50:11.885Z,7.70
2018-12-05T22:52:41.021Z,7.80
2018-12-05T22:55:10.245Z,7.80
2018-12-05T22:57:39.327Z,7.80
2018-12-05T23:00:15.983Z,7.80
2018-12-05T23:02:45.239Z,7.80
2018-12-05T23:05:14.320Z,7.90
2018-12-05T23:07:43.547Z,7.90
2018-12-05T23:10:12.914Z,7.90
2018-12-05T23:12:42.051Z,7.90
2018-12-05T23:15:11.191Z,7.80
2018-12-05T23:17:40.287Z,7.90
2018-12-05T23:20:09.543Z,7.80
2018-12-05T23:22:38.824Z,7.80
2018-12-05T23:25:07.925Z,7.90
2018-12-05T23:27:36.977Z,7.90
2018-12-05T23:30:06.677Z,7.90
2018-12-05T23:32:35.812Z,7.90
2018-12-05T23:35:05.337Z,7.90
2018-12-05T23:37:34.530Z,7.80
2018-12-05T23:40:03.756Z,7.80
2018-12-05T23:42:32.957Z,7.80
2018-12-05T23:45:02.035Z,7.80
2018-12-05T23:47:31.407Z,7.70
2018-12-05T23:50:00.482Z,7.80
2018-12-05T23:52:29.590Z,7.80
2018-12-05T23:54:58.711Z,7.70
2018-12-05T23:57:27.913Z,7.70
2018-12-05T23:59:56.992Z,7.70
